Time;durP1;ratioP1;P1;durP2;ratioP2;P2;SDS_P1;SDS_P2;PMS_P1;PMS_P2;Temp;Humidity;BMP_temperature;BMP_pressure;BME280_temperature;BME280_humidity;BME280_pressure;Samples;Min_cycle;Max_cycle;Signal;HPM_P1;HPM_P2
2021/08/08 00:01:43;;;;;;;5.45;2.52;;;;;;;13.43;98.05;99975.55;1720011;83;21446;-76
2021/08/08 00:04:10;;;;;;;5.03;2.70;;;;;;;13.39;98.23;99983.28;1719830;83;21039;-76
2021/08/08 00:06:37;;;;;;;9.13;2.58;;;;;;;13.37;98.37;99990.44;1741090;82;21108;-77
2021/08/08 00:09:05;;;;;;;5.40;2.47;;;;;;;13.35;98.63;99989.65;1749670;82;21061;-76
2021/08/08 00:11:32;;;;;;;9.25;2.90;;;;;;;13.32;98.69;99988.46;1749835;82;21859;-76
2021/08/08 00:13:59;;;;;;;3.15;1.87;;;;;;;13.29;98.71;99996.56;1749503;82;21109;-76
2021/08/08 00:16:27;;;;;;;9.98;2.67;;;;;;;13.25;98.58;99987.03;1749634;82;21028;-77
2021/08/08 00:18:54;;;;;;;8.33;2.70;;;;;;;13.26;98.60;99991.41;1749772;82;21557;-76
2021/08/08 00:21:23;;;;;;;3.98;2.12;;;;;;;13.26;98.79;99990.08;1749686;82;21060;-75
2021/08/08 00:23:51;;;;;;;5.47;2.50;;;;;;;13.27;99.01;99982.05;1749877;82;21057;-77
2021/08/08 00:26:18;;;;;;;11.97;2.50;;;;;;;13.27;98.78;99983.38;1749708;82;21500;-75
2021/08/08 00:28:48;;;;;;;3.85;2.30;;;;;;;13.29;98.74;99985.98;1749781;82;21008;-77
2021/08/08 00:31:16;;;;;;;6.10;2.47;;;;;;;13.27;98.81;99993.10;1749617;82;21084;-76
2021/08/08 00:33:44;;;;;;;3.52;2.52;;;;;;;13.22;99.13;99990.22;1749849;82;21049;-76
2021/08/08 00:36:14;;;;;;;8.20;2.60;;;;;;;13.17;99.36;99990.92;1749889;82;21056;-74
2021/08/08 00:38:43;;;;;;;5.95;3.05;;;;;;;13.14;99.27;99999.02;1749880;82;21681;-76
2021/08/08 00:41:09;;;;;;;7.80;2.75;;;;;;;13.12;99.35;99998.23;1750035;82;21029;-75
2021/08/08 00:43:38;;;;;;;7.95;2.83;;;;;;;13.10;99.49;100004.53;1746655;82;21040;-79
2021/08/08 00:46:05;;;;;;;4.08;2.67;;;;;;;13.09;99.63;100002.80;1707915;83;21512;-85
2021/08/08 00:48:33;;;;;;;8.75;2.42;;;;;;;13.09;99.77;100002.36;1713051;83;21072;-86
2021/08/08 00:51:04;;;;;;;5.75;2.80;;;;;;;13.08;99.87;99994.02;1713049;82;21115;-85
2021/08/08 00:53:34;;;;;;;4.08;1.82;;;;;;;13.08;99.85;99995.34;1708581;82;21049;-83
2021/08/08 00:56:03;;;;;;;3.67;2.90;;;;;;;13.08;99.75;99994.02;1750184;82;21148;-82
2021/08/08 00:58:31;;;;;;;4.67;2.60;;;;;;;13.09;99.15;99998.84;1750092;82;21053;-83
2021/08/08 01:01:02;;;;;;;4.20;2.67;;;;;;;13.05;99.24;99999.47;1750393;82;21060;-81
2021/08/08 01:03:29;;;;;;;3.45;2.77;;;;;;;13.03;99.33;100001.80;1750222;82;21143;-82
2021/08/08 01:06:21;;;;;;;3.52;2.75;;;;;;;12.97;99.56;100005.11;1749747;82;21056;-81
2021/08/08 01:08:53;;;;;;;5.83;2.42;;;;;;;12.93;99.76;100000.05;1714592;83;21088;-83
2021/08/08 01:11:20;;;;;;;5.03;2.80;;;;;;;12.91;99.98;100005.44;1717949;83;21061;-84
2021/08/08 01:13:49;;;;;;;5.55;2.58;;;;;;;12.92;99.85;100008.92;1717369;82;20970;-83
2021/08/08 01:16:16;;;;;;;2.62;2.27;;;;;;;12.94;100.00;100009.71;1689453;82;21105;-84
2021/08/08 01:18:44;;;;;;;4.95;2.10;;;;;;;12.95;100.00;100008.77;1690583;83;22181;-83
2021/08/08 01:21:12;;;;;;;2.47;2.00;;;;;;;12.96;99.86;100015.78;1748608;81;22119;-82
2021/08/08 01:23:39;;;;;;;3.75;2.55;;;;;;;12.98;99.86;100015.25;1753283;81;21025;-84
2021/08/08 01:26:07;;;;;;;6.70;2.30;;;;;;;12.99;99.21;100014.30;1753352;81;21056;-83
2021/08/08 01:28:36;;;;;;;5.28;2.60;;;;;;;13.03;99.71;100013.23;1753231;81;21568;-82
2021/08/08 01:31:04;;;;;;;4.25;2.58;;;;;;;13.04;99.90;100018.89;1752717;81;21544;-83
2021/08/08 01:33:31;;;;;;;8.18;2.75;;;;;;;13.01;99.64;100024.34;1752441;81;21069;-83
2021/08/08 01:36:00;;;;;;;6.62;3.00;;;;;;;12.99;99.80;100026.20;1752064;81;21085;-81
2021/08/08 01:38:29;;;;;;;6.65;2.35;;;;;;;12.97;99.87;100032.02;1752291;81;21040;-82
2021/08/08 01:41:02;;;;;;;8.40;2.77;;;;;;;12.92;100.00;100032.72;1752440;81;21741;-81
2021/08/08 01:43:33;;;;;;;5.58;2.90;;;;;;;12.87;100.00;100028.13;1723539;81;21072;-82
2021/08/08 01:46:06;;;;;;;3.70;2.87;;;;;;;12.85;100.00;100031.30;1723401;81;21574;-82
2021/08/08 01:48:38;;;;;;;10.80;2.87;;;;;;;12.83;100.00;100025.23;1751540;81;21174;-83
2021/08/08 01:51:05;;;;;;;7.60;2.77;;;;;;;12.84;100.00;100020.31;1747517;80;21083;-83
2021/08/08 01:53:33;;;;;;;4.97;2.65;;;;;;;12.85;100.00;100016.77;1687104;83;21173;-83
2021/08/08 01:56:00;;;;;;;4.25;2.60;;;;;;;12.87;100.00;100018.40;1737653;82;21050;-82
2021/08/08 01:58:29;;;;;;;3.25;2.47;;;;;;;12.88;100.00;100024.53;1709618;82;21063;-82
2021/08/08 02:00:59;;;;;;;5.58;2.65;;;;;;;12.86;100.00;100030.36;1737598;82;21102;-82
2021/08/08 02:03:34;;;;;;;9.40;3.15;;;;;;;12.86;100.00;100025.06;1737503;82;21042;-79
2021/08/08 02:06:03;;;;;;;5.20;2.75;;;;;;;12.84;100.00;100024.28;1737646;82;21895;-79
2021/08/08 02:08:30;;;;;;;5.60;2.80;;;;;;;12.78;100.00;100020.16;1737461;82;21645;-80
2021/08/08 02:11:06;;;;;;;7.40;3.00;;;;;;;12.71;100.00;100024.88;1737578;82;21047;-78
2021/08/08 02:13:38;;;;;;;3.92;2.10;;;;;;;12.67;100.00;100029.91;1720996;82;21085;-78
2021/08/08 02:16:06;;;;;;;8.30;2.83;;;;;;;12.63;100.00;100024.84;1720661;83;21138;-82
2021/08/08 02:18:34;;;;;;;7.60;2.20;;;;;;;12.62;100.00;100033.23;1719212;83;21184;-79
2021/08/08 02:21:01;;;;;;;5.78;2.52;;;;;;;12.62;100.00;100030.59;1719102;83;21086;-79
2021/08/08 02:23:29;;;;;;;4.72;2.80;;;;;;;12.63;100.00;100038.94;1719231;83;21026;-78
2021/08/08 02:25:58;;;;;;;5.78;2.80;;;;;;;12.62;100.00;100035.88;1719733;83;21039;-82
2021/08/08 02:28:27;;;;;;;6.05;2.80;;;;;;;12.62;100.00;100041.16;1721445;83;21521;-81
2021/08/08 02:30:56;;;;;;;9.05;3.05;;;;;;;12.60;100.00;100033.77;1722539;83;21052;-80
2021/08/08 02:33:25;;;;;;;5.60;2.83;;;;;;;12.55;100.00;100025.21;1719520;83;21078;-78
2021/08/08 02:35:53;;;;;;;6.05;2.80;;;;;;;12.53;100.00;100033.67;1718823;83;21168;-78
2021/08/08 02:38:21;;;;;;;3.50;1.95;;;;;;;12.50;100.00;100039.11;1718745;83;21047;-82
2021/08/08 02:40:50;;;;;;;4.92;2.75;;;;;;;12.46;100.00;100044.98;1718835;83;21254;-80
2021/08/08 02:43:17;;;;;;;4.85;2.60;;;;;;;12.45;100.00;100043.75;1713793;83;21163;-81
2021/08/08 02:45:49;;;;;;;3.35;2.35;;;;;;;12.44;100.00;100036.27;1719240;83;21075;-83
2021/08/08 02:48:15;;;;;;;4.25;2.87;;;;;;;12.46;100.00;100034.89;1719979;83;21117;-83
2021/08/08 02:50:44;;;;;;;3.30;2.40;;;;;;;12.49;100.00;100032.09;1722581;82;21035;-81
2021/08/08 02:53:11;;;;;;;5.03;3.08;;;;;;;12.49;100.00;100036.94;1723907;83;21067;-81
2021/08/08 02:55:40;;;;;;;6.08;2.75;;;;;;;12.51;100.00;100031.56;1721397;83;21131;-80
2021/08/08 02:58:07;;;;;;;6.37;2.60;;;;;;;12.52;100.00;100041.22;1718600;83;21027;-80
2021/08/08 03:00:35;;;;;;;6.67;2.90;;;;;;;12.50;100.00;100037.78;1723546;83;20988;-80
2021/08/08 03:03:03;;;;;;;7.85;2.90;;;;;;;12.50;100.00;100036.47;1723332;81;21068;-79
2021/08/08 03:05:32;;;;;;;12.37;3.02;;;;;;;12.50;100.00;100041.75;1720549;83;21462;-79
2021/08/08 03:07:59;;;;;;;5.80;2.80;;;;;;;12.51;100.00;100039.02;1719327;83;21487;-80
2021/08/08 03:10:26;;;;;;;1.87;1.50;;;;;;;12.57;100.00;100044.50;1718497;83;21046;-79
2021/08/08 03:12:54;;;;;;;3.77;2.58;;;;;;;12.63;100.00;100042.90;1718860;83;21066;-81
2021/08/08 03:15:22;;;;;;;13.13;3.25;;;;;;;12.69;100.00;100041.27;1718421;83;21145;-78
2021/08/08 03:17:49;;;;;;;6.28;2.40;;;;;;;12.78;100.00;100040.83;1718797;83;21605;-79
2021/08/08 03:20:16;;;;;;;7.80;2.70;;;;;;;12.86;100.00;100047.53;1718466;83;21112;-79
2021/08/08 03:22:46;;;;;;;6.22;2.60;;;;;;;12.94;100.00;100050.68;1718660;83;21035;-77
2021/08/08 03:25:13;;;;;;;4.12;2.00;;;;;;;13.03;100.00;100047.59;1718414;83;21103;-77
2021/08/08 03:27:40;;;;;;;7.58;2.83;;;;;;;13.19;100.00;100052.52;1718689;83;21605;-78
2021/08/08 03:30:10;;;;;;;5.15;2.85;;;;;;;13.47;100.00;100053.83;1720183;82;21581;-78
2021/08/08 03:32:41;;;;;;;5.30;3.30;;;;;;;13.92;100.00;100051.09;1742957;81;21106;-77
2021/08/08 03:35:09;;;;;;;7.37;2.60;;;;;;;14.42;100.00;100051.53;1742382;82;21112;-77
2021/08/08 03:37:38;;;;;;;5.30;1.98;;;;;;;14.90;98.75;100059.05;1719837;82;21037;-75
2021/08/08 03:40:07;;;;;;;4.47;2.70;;;;;;;15.38;96.95;100055.50;1712033;83;21129;-77
2021/08/08 03:42:36;;;;;;;5.15;2.50;;;;;;;15.88;94.47;100060.98;1712562;83;21080;-75
2021/08/08 03:45:05;;;;;;;4.42;2.37;;;;;;;16.32;91.95;100052.94;1711994;83;21288;-79
2021/08/08 03:47:35;;;;;;;5.72;2.35;;;;;;;16.79;90.05;100050.92;1712027;82;21678;-77
2021/08/08 03:50:05;;;;;;;3.90;2.22;;;;;;;17.22;87.81;100050.80;1711835;83;21038;-79
2021/08/08 03:52:33;;;;;;;3.83;2.40;;;;;;;17.63;85.36;100048.52;1732102;82;21014;-76
2021/08/08 03:55:01;;;;;;;3.75;2.15;;;;;;;18.08;83.13;100046.81;1725455;82;21099;-80
2021/08/08 03:57:28;;;;;;;5.12;2.33;;;;;;;18.52;80.22;100042.83;1712222;83;22130;-76
2021/08/08 03:59:59;;;;;;;6.65;2.70;;;;;;;18.83;78.33;100041.52;1725418;82;21068;-80
2021/08/08 04:02:25;;;;;;;3.58;2.20;;;;;;;19.13;77.25;100044.23;1741233;82;21085;-74
2021/08/08 04:04:54;;;;;;;3.95;2.40;;;;;;;19.35;76.14;100045.67;1742627;82;21064;-74
2021/08/08 04:07:21;;;;;;;4.03;2.45;;;;;;;19.64;74.93;100050.63;1733343;82;21319;-71
2021/08/08 04:09:48;;;;;;;7.00;2.30;;;;;;;19.91;73.98;100045.86;1732681;81;21753;-76
2021/08/08 04:12:15;;;;;;;8.13;2.45;;;;;;;20.24;72.57;100052.21;1739983;82;21060;-76
2021/08/08 04:14:44;;;;;;;5.12;2.35;;;;;;;20.69;71.86;100054.92;1734903;80;21080;-77
2021/08/08 04:17:14;;;;;;;3.33;1.87;;;;;;;21.09;69.74;100053.00;1745045;82;21056;-76
2021/08/08 04:19:42;;;;;;;2.98;2.20;;;;;;;21.46;68.30;100045.12;1733246;82;21139;-77
2021/08/08 04:22:09;;;;;;;4.22;1.50;;;;;;;21.83;66.43;100036.64;1736274;82;21559;-78
2021/08/08 04:24:36;;;;;;;3.20;2.20;;;;;;;22.08;63.93;100034.88;1741765;82;21130;-77
2021/08/08 04:27:04;;;;;;;5.65;2.12;;;;;;;22.37;64.77;100033.72;1737852;82;21137;-78
2021/08/08 04:29:31;;;;;;;3.70;2.20;;;;;;;22.70;63.49;100025.48;1741973;82;21115;-77
2021/08/08 04:32:00;;;;;;;6.47;2.00;;;;;;;22.89;62.79;100029.58;1735960;82;21029;-78
2021/08/08 04:34:31;;;;;;;3.90;2.20;;;;;;;22.99;62.95;100032.30;1736290;82;21126;-76
2021/08/08 04:36:56;;;;;;;4.60;1.85;;;;;;;23.11;63.20;100024.46;1727215;82;21132;-76
2021/08/08 04:39:23;;;;;;;5.12;2.00;;;;;;;23.38;63.00;100020.24;1734461;82;21111;-77
2021/08/08 04:41:52;;;;;;;4.87;2.15;;;;;;;23.77;62.19;100024.27;1719026;81;21167;-77
2021/08/08 04:44:20;;;;;;;3.25;1.77;;;;;;;24.30;60.95;100030.41;1729441;82;21037;-78
2021/08/08 04:46:48;;;;;;;4.85;1.77;;;;;;;24.79;58.92;100020.27;1730710;80;21495;-78
2021/08/08 04:49:15;;;;;;;2.30;1.80;;;;;;;25.17;57.54;100030.44;1722699;82;21501;-77
2021/08/08 04:51:42;;;;;;;4.83;1.70;;;;;;;25.57;56.38;100028.30;1728188;82;21081;-78
2021/08/08 04:54:10;;;;;;;3.30;1.77;;;;;;;25.91;54.98;100026.56;1720586;82;21112;-77
2021/08/08 04:56:38;;;;;;;3.90;1.80;;;;;;;26.19;53.89;100021.50;1710026;82;21097;-77
2021/08/08 04:59:05;;;;;;;3.02;1.50;;;;;;;26.45;53.12;100027.69;1704447;84;21502;-78
2021/08/08 05:01:32;;;;;;;3.75;1.62;;;;;;;26.60;51.63;100027.13;1704429;84;21121;-78
2021/08/08 05:03:59;;;;;;;3.85;1.65;;;;;;;26.42;51.28;100036.13;1704408;84;21108;-77
2021/08/08 05:06:26;;;;;;;3.20;1.55;;;;;;;26.51;52.28;100025.70;1704527;84;21113;-76
2021/08/08 05:08:53;;;;;;;3.60;1.50;;;;;;;26.77;50.38;100024.80;1704271;83;21066;-76
2021/08/08 05:11:20;;;;;;;2.22;1.27;;;;;;;27.14;49.96;100030.30;1730611;82;21648;-77
2021/08/08 05:13:49;;;;;;;2.35;1.47;;;;;;;27.35;49.10;100033.38;1717619;82;21585;-77
2021/08/08 05:16:16;;;;;;;1.85;1.60;;;;;;;27.60;46.82;100036.10;1704548;84;21156;-77
2021/08/08 05:18:44;;;;;;;2.45;1.25;;;;;;;27.85;47.41;100045.60;1712913;82;21338;-76
2021/08/08 05:21:12;;;;;;;1.87;1.50;;;;;;;28.01;45.72;100049.63;1741059;82;21642;-78
2021/08/08 05:23:39;;;;;;;2.40;1.27;;;;;;;28.02;46.14;100049.95;1717971;82;22215;-79
2021/08/08 05:26:06;;;;;;;1.95;1.00;;;;;;;28.17;45.66;100048.76;1736624;82;21089;-76
2021/08/08 05:28:32;;;;;;;1.90;1.30;;;;;;;28.53;43.75;100049.19;1736937;82;21172;-77
2021/08/08 05:30:59;;;;;;;2.05;1.10;;;;;;;28.88;43.23;100040.22;1737234;82;21124;-78
2021/08/08 05:33:26;;;;;;;2.20;1.30;;;;;;;29.21;41.89;100038.16;1729043;82;21125;-77
2021/08/08 05:35:53;;;;;;;1.42;1.17;;;;;;;29.21;41.89;100038.16;1704303;83;21836;-79
2021/08/08 05:38:20;;;;;;;4.30;1.20;;;;;;;29.29;42.17;100034.57;1722401;82;21081;-78
2021/08/08 05:40:48;;;;;;;4.10;1.42;;;;;;;29.81;40.16;100037.88;1709342;82;21061;-77
2021/08/08 05:43:15;;;;;;;4.47;1.60;;;;;;;29.81;40.16;100037.88;1710263;83;21100;-78
2021/08/08 05:45:47;;;;;;;1.60;1.05;;;;;;;29.97;40.22;100033.32;1710586;82;21054;-76
2021/08/08 05:48:13;;;;;;;3.05;1.30;;;;;;;30.08;39.46;100036.94;1710651;82;21303;-75
2021/08/08 05:50:41;;;;;;;2.77;1.25;;;;;;;30.01;39.14;100041.43;1710919;83;21668;-77
2021/08/08 05:53:08;;;;;;;2.90;1.10;;;;;;;30.03;38.16;100043.45;1725007;82;21104;-77
2021/08/08 05:55:40;;;;;;;6.08;1.40;;;;;;;30.15;38.45;100049.27;1733263;80;21536;-77
2021/08/08 05:58:05;;;;;;;3.05;1.10;;;;;;;30.23;37.79;100055.45;1741818;82;21078;-77
2021/08/08 06:00:32;;;;;;;2.22;1.12;;;;;;;30.33;37.54;100055.73;1741968;82;21101;-77
2021/08/08 06:03:09;;;;;;;4.00;1.20;;;;;;;30.54;37.02;100061.23;1736912;82;21070;-78
2021/08/08 06:05:37;;;;;;;3.40;1.17;;;;;;;30.53;36.72;100058.20;1736549;82;21054;-78
2021/08/08 06:08:05;;;;;;;4.70;1.50;;;;;;;30.42;36.68;100052.72;1740676;82;21046;-78
2021/08/08 06:10:32;;;;;;;2.37;1.40;;;;;;;30.30;36.97;100050.99;1735220;82;21132;-77
2021/08/08 06:12:59;;;;;;;1.90;1.30;;;;;;;30.19;36.91;100051.42;1731807;82;21632;-78
2021/08/08 06:15:28;;;;;;;3.65;1.37;;;;;;;30.13;37.36;100050.80;1736916;82;21065;-76
2021/08/08 06:17:57;;;;;;;2.80;1.27;;;;;;;30.31;36.87;100054.02;1741062;82;21070;-77
2021/08/08 06:20:24;;;;;;;3.80;1.25;;;;;;;30.50;36.11;100058.04;1735943;82;21614;-78
2021/08/08 06:22:51;;;;;;;2.75;1.30;;;;;;;30.66;35.96;100049.37;1738885;81;21114;-78
2021/08/08 06:25:18;;;;;;;3.37;1.32;;;;;;;30.72;35.71;100050.81;1739086;82;21103;-78
2021/08/08 06:27:45;;;;;;;2.17;1.25;;;;;;;30.88;35.93;100050.31;1726777;82;21600;-78
2021/08/08 06:30:12;;;;;;;2.52;1.30;;;;;;;30.88;35.93;100050.31;1742026;82;21042;-78
2021/08/08 06:32:40;;;;;;;2.87;1.00;;;;;;;31.07;34.68;100055.12;1736466;82;21125;-75
2021/08/08 06:35:08;;;;;;;2.52;1.30;;;;;;;31.09;34.40;100058.49;1741723;82;21041;-78
2021/08/08 06:37:35;;;;;;;6.12;1.75;;;;;;;31.20;34.37;100054.93;1741837;82;21817;-75
2021/08/08 06:40:03;;;;;;;2.08;1.35;;;;;;;31.35;34.04;100052.48;1740706;82;21074;-80
2021/08/08 06:42:29;;;;;;;2.95;1.32;;;;;;;31.46;33.89;100055.77;1742450;82;21062;-78
2021/08/08 06:44:58;;;;;;;1.20;0.95;;;;;;;31.33;32.86;100055.07;1742042;82;21090;-76
2021/08/08 06:47:25;;;;;;;2.65;1.37;;;;;;;31.28;33.54;100064.34;1738414;82;21067;-76
2021/08/08 06:49:52;;;;;;;3.95;1.70;;;;;;;31.38;34.09;100064.84;1728799;82;21127;-78
2021/08/08 06:52:19;;;;;;;3.42;1.40;;;;;;;31.37;33.49;100063.17;1742004;82;21101;-78
2021/08/08 06:54:46;;;;;;;1.77;1.22;;;;;;;31.41;34.06;100071.31;1742400;82;21174;-77
2021/08/08 06:57:25;;;;;;;4.28;1.80;;;;;;;31.45;33.82;100071.26;1737928;82;21072;-80
2021/08/08 06:59:53;;;;;;;2.25;1.52;;;;;;;31.58;33.87;100071.05;1742923;82;21061;-77
2021/08/08 07:02:21;;;;;;;2.50;1.25;;;;;;;31.82;33.58;100070.64;1742560;82;21192;-78
2021/08/08 07:04:48;;;;;;;6.42;1.37;;;;;;;31.98;32.12;100066.30;1741521;82;21082;-80
2021/08/08 07:07:15;;;;;;;2.10;1.42;;;;;;;32.06;32.52;100065.83;1737053;82;21049;-78
2021/08/08 07:09:43;;;;;;;3.47;1.50;;;;;;;32.06;32.33;100076.19;1741939;82;21098;-78
2021/08/08 07:12:11;;;;;;;11.73;1.80;;;;;;;32.04;31.80;100076.07;1722758;82;21090;-79
2021/08/08 07:14:43;;;;;;;3.33;1.50;;;;;;;32.01;32.91;100076.48;1737898;82;21158;-77
2021/08/08 07:17:15;;;;;;;6.55;1.62;;;;;;;31.91;32.53;100077.63;1742142;82;21105;-78
2021/08/08 07:19:42;;;;;;;2.00;1.30;;;;;;;32.00;32.35;100080.22;1720726;82;21058;-78
2021/08/08 07:22:10;;;;;;;3.80;1.63;;;;;;;31.92;32.05;100077.94;1701645;83;21108;-80
2021/08/08 07:24:38;;;;;;;2.52;1.30;;;;;;;31.84;32.15;100078.10;1703856;83;21057;-80
2021/08/08 07:27:05;;;;;;;4.65;1.80;;;;;;;32.03;32.20;100077.13;1707925;82;21106;-78
2021/08/08 07:29:33;;;;;;;3.08;1.20;;;;;;;32.03;31.37;100075.77;1712460;83;21213;-79
2021/08/08 07:32:01;;;;;;;3.08;1.40;;;;;;;32.03;31.29;100081.21;1706444;83;21634;-78
2021/08/08 07:34:28;;;;;;;3.45;1.60;;;;;;;32.06;30.56;100086.25;1686451;82;21159;-77
2021/08/08 07:36:56;;;;;;;3.35;1.75;;;;;;;31.84;31.64;100082.19;1695321;83;21037;-79
2021/08/08 07:39:23;;;;;;;2.20;1.22;;;;;;;31.70;31.66;100087.17;1704908;82;22211;-79
2021/08/08 07:41:50;;;;;;;2.00;1.40;;;;;;;31.73;32.52;100089.52;1719345;83;21073;-78
2021/08/08 07:44:17;;;;;;;2.22;1.45;;;;;;;31.85;30.15;100086.58;1715561;82;21596;-80
2021/08/08 07:46:45;;;;;;;2.70;1.60;;;;;;;31.85;30.15;100086.58;1699761;83;21064;-79
2021/08/08 07:49:13;;;;;;;2.60;1.52;;;;;;;31.61;29.98;100094.66;1691960;83;21042;-76
2021/08/08 07:51:41;;;;;;;3.42;1.40;;;;;;;31.48;31.21;100096.71;1695739;82;21579;-78
2021/08/08 07:54:09;;;;;;;2.25;1.42;;;;;;;31.28;31.57;100102.42;1696413;83;21022;-78
2021/08/08 07:56:36;;;;;;;2.72;1.40;;;;;;;31.50;31.96;100099.25;1713595;83;21128;-78
2021/08/08 07:59:05;;;;;;;2.70;1.70;;;;;;;31.50;31.96;100099.25;1700815;82;21038;-78
2021/08/08 08:01:34;;;;;;;2.90;1.37;;;;;;;31.61;31.27;100097.86;1674983;83;21813;-81
2021/08/08 08:04:05;;;;;;;2.47;1.50;;;;;;;31.60;30.83;100097.03;1675177;83;21925;-80
2021/08/08 08:06:32;;;;;;;5.70;1.40;;;;;;;31.66;31.25;100102.23;1660422;83;22119;-77
2021/08/08 08:08:59;;;;;;;2.27;1.30;;;;;;;31.73;31.18;100102.61;1700304;82;21068;-79
2021/08/08 08:11:25;;;;;;;4.00;1.50;;;;;;;31.97;30.98;100102.72;1697797;82;21110;-79
2021/08/08 08:13:54;;;;;;;2.60;1.10;;;;;;;32.35;29.59;100101.03;1702025;82;21002;-79
2021/08/08 08:16:23;;;;;;;2.33;1.40;;;;;;;32.48;29.43;100106.23;1709593;82;21539;-79
2021/08/08 08:18:50;;;;;;;4.70;1.60;;;;;;;32.79;29.13;100101.72;1721499;81;20974;-78
2021/08/08 08:21:17;;;;;;;1.87;1.40;;;;;;;33.04;28.61;100096.58;1715201;82;21085;-79
2021/08/08 08:23:44;;;;;;;2.92;1.50;;;;;;;33.08;28.05;100097.03;1719401;82;21078;-78
2021/08/08 08:26:11;;;;;;;5.45;1.80;;;;;;;33.23;27.78;100091.73;1726800;82;21042;-79
2021/08/08 08:28:38;;;;;;;10.43;5.05;;;;;;;33.34;27.43;100086.73;1721532;82;21102;-78
2021/08/08 08:31:05;;;;;;;3.27;1.40;;;;;;;33.47;27.55;100084.00;1723520;82;21055;-77
2021/08/08 08:33:32;;;;;;;3.47;1.30;;;;;;;33.54;27.50;100075.29;1732018;81;21121;-77
2021/08/08 08:36:04;;;;;;;2.37;1.27;;;;;;;33.73;27.40;100072.81;1716998;82;21085;-80
2021/08/08 08:38:31;;;;;;;3.45;1.52;;;;;;;33.95;26.52;100070.19;1728433;82;21564;-79
2021/08/08 08:40:58;;;;;;;2.08;1.20;;;;;;;34.00;26.11;100066.29;1720681;81;21155;-79
2021/08/08 08:43:26;;;;;;;3.02;1.25;;;;;;;33.95;26.52;100067.45;1721214;81;21216;-81
2021/08/08 08:45:53;;;;;;;4.87;1.30;;;;;;;33.96;26.82;100069.16;1724548;82;21156;-78
2021/08/08 08:48:21;;;;;;;3.15;1.72;;;;;;;33.78;26.75;100060.76;1727568;82;21107;-78
2021/08/08 08:50:53;;;;;;;5.05;1.62;;;;;;;33.61;26.47;100061.19;1726440;82;21132;-77
2021/08/08 08:53:23;;;;;;;3.27;1.10;;;;;;;33.30;27.37;100060.89;1729680;82;21085;-77
2021/08/08 08:55:50;;;;;;;4.22;1.40;;;;;;;33.19;27.58;100063.16;1728905;82;21075;-78
2021/08/08 08:58:19;;;;;;;1.98;1.30;;;;;;;33.12;27.95;100065.04;1723243;82;21049;-78
2021/08/08 09:00:50;;;;;;;2.95;1.20;;;;;;;33.13;27.33;100061.28;1722145;82;21124;-79
2021/08/08 09:03:17;;;;;;;2.10;1.17;;;;;;;33.21;27.41;100056.98;1729340;81;21536;-78
2021/08/08 09:05:44;;;;;;;4.12;1.32;;;;;;;33.39;26.94;100055.55;1705296;84;21521;-78
2021/08/08 09:08:14;;;;;;;1.40;1.10;;;;;;;33.47;27.16;100053.97;1708128;82;21022;-78
2021/08/08 09:10:41;;;;;;;3.80;1.10;;;;;;;33.50;26.85;100052.21;1707688;82;21046;-78
2021/08/08 09:13:08;;;;;;;2.65;1.10;;;;;;;33.63;25.83;100053.59;1725382;83;21049;-77
2021/08/08 09:15:41;;;;;;;;;;;;;;;33.55;25.97;100048.33;1729219;82;21111;-77
2021/08/08 09:18:15;;;;;;;1.77;1.30;;;;;;;33.55;26.30;100049.69;1705988;83;21067;-78
2021/08/08 09:20:45;;;;;;;1.55;1.20;;;;;;;33.42;26.55;100042.84;1727043;82;21124;-79
2021/08/08 09:23:13;;;;;;;1.87;1.20;;;;;;;33.55;25.91;100041.50;1724799;83;21291;-79
2021/08/08 09:25:54;;;;;;;1.67;0.98;;;;;;;33.60;26.24;100043.10;1726092;82;21042;-78
2021/08/08 09:28:30;;;;;;;4.58;1.30;;;;;;;33.79;25.56;100043.31;1726512;82;21162;-78
2021/08/08 09:33:45;;;;;;;2.45;1.22;;;;;;;34.18;25.18;100031.52;1796421;79;22628;-78
2021/08/08 09:36:12;;;;;;;1.85;1.20;;;;;;;33.87;24.13;100034.91;1753998;81;21093;-79
2021/08/08 09:38:45;;;;;;;3.90;1.10;;;;;;;33.76;23.31;100035.55;1756028;81;20977;-77
2021/08/08 09:41:14;;;;;;;4.03;1.30;;;;;;;33.56;24.26;100032.78;1755720;81;21010;-77
2021/08/08 09:43:41;;;;;;;1.85;1.15;;;;;;;33.59;24.30;100040.57;1699384;83;21485;-79
2021/08/08 09:46:14;;;;;;;4.62;1.20;;;;;;;33.76;24.29;100034.19;1725707;82;21041;-78
2021/08/08 09:48:42;;;;;;;7.12;1.25;;;;;;;33.73;24.11;100027.26;1693486;84;21574;-79
2021/08/08 09:51:11;;;;;;;2.85;1.00;;;;;;;33.82;24.88;100034.69;1693121;84;21983;-79
2021/08/08 09:53:39;;;;;;;2.30;1.20;;;;;;;34.00;23.45;100025.31;1693163;84;28364;-78
2021/08/08 09:56:18;;;;;;;1.40;1.20;;;;;;;34.18;22.51;100034.78;1680555;85;21086;-78
2021/08/08 09:58:48;;;;;;;2.12;1.15;;;;;;;34.36;22.96;100045.05;1678216;85;21082;-77
2021/08/08 10:01:15;;;;;;;1.70;1.10;;;;;;;34.57;21.93;100041.19;1668953;85;22210;-78
2021/08/08 10:03:42;;;;;;;2.67;1.10;;;;;;;34.55;22.30;100030.98;1674710;85;21121;-79
2021/08/08 10:06:14;;;;;;;4.12;1.25;;;;;;;34.57;22.61;100033.81;1693189;83;21088;-80
2021/08/08 10:08:45;;;;;;;2.50;1.42;;;;;;;34.67;22.25;100033.37;1645234;84;20973;-77
2021/08/08 10:11:12;;;;;;;5.22;1.20;;;;;;;34.76;22.79;100030.70;1693904;84;21037;-78
2021/08/08 10:14:02;;;;;;;3.22;1.52;;;;;;;34.56;22.86;100024.48;1693589;83;22159;-82
2021/08/08 10:16:34;;;;;;;4.53;1.30;;;;;;;34.18;23.04;100036.14;1697541;83;21065;-79
2021/08/08 10:19:03;;;;;;;2.05;1.20;;;;;;;33.70;21.79;100031.75;1693458;83;21068;-80
2021/08/08 10:21:32;;;;;;;4.45;1.55;;;;;;;33.47;23.13;100044.42;1692732;83;21131;-79
2021/08/08 10:24:06;;;;;;;2.17;1.40;;;;;;;33.43;23.64;100041.28;1693580;84;21065;-79
2021/08/08 10:26:34;;;;;;;4.95;1.42;;;;;;;33.35;23.37;100040.11;1693759;84;21061;-77
2021/08/08 10:29:02;;;;;;;7.65;1.40;;;;;;;33.30;24.62;100033.61;1693466;84;21108;-77
2021/08/08 10:31:31;;;;;;;10.30;1.57;;;;;;;33.69;23.94;100037.45;1693424;84;21048;-76
2021/08/08 10:34:01;;;;;;;6.62;2.00;;;;;;;33.97;23.56;100038.04;1679282;84;22244;-76
2021/08/08 10:36:33;;;;;;;2.12;1.40;;;;;;;34.20;23.88;100042.24;1675691;85;21084;-77
2021/08/08 10:39:10;;;;;;;1.57;1.20;;;;;;;34.30;22.92;100045.36;1676591;84;21049;-78
2021/08/08 10:41:58;;;;;;;2.42;1.60;;;;;;;34.15;23.16;100042.05;1668105;84;21941;-79
2021/08/08 10:44:28;;;;;;;4.17;1.62;;;;;;;33.60;24.17;100037.64;1687729;83;21029;-79
2021/08/08 10:46:56;;;;;;;2.37;1.30;;;;;;;33.44;25.00;100032.56;1709410;83;21090;-79
2021/08/08 10:49:31;;;;;;;2.30;1.40;;;;;;;33.43;25.40;100030.90;1702099;83;21639;-80
2021/08/08 10:52:23;;;;;;;;;;;;;;;;;;;;;
2021/08/08 10:54:52;;;;;;;5.15;1.90;;;;;;;33.45;26.28;100026.04;1691472;83;21335;-78
2021/08/08 10:57:20;;;;;;;3.40;1.55;;;;;;;33.65;25.87;100020.63;1699333;83;21142;-79
2021/08/08 10:59:49;;;;;;;1.75;1.42;;;;;;;33.90;25.66;100026.81;1685517;83;21081;-77
2021/08/08 11:02:28;;;;;;;2.65;1.50;;;;;;;34.09;24.99;100023.73;1709380;83;21068;-75
2021/08/08 11:04:56;;;;;;;2.47;1.60;;;;;;;34.07;24.03;100025.30;1708906;83;21046;-73
2021/08/08 11:07:29;;;;;;;2.02;1.40;;;;;;;34.08;25.36;100028.36;1707739;83;21549;-73
2021/08/08 11:09:55;;;;;;;2.98;1.60;;;;;;;34.14;25.62;100032.16;1709075;83;21156;-72
2021/08/08 11:12:36;;;;;;;1.65;1.20;;;;;;;34.42;24.51;100024.52;1708157;83;21136;-73
2021/08/08 11:15:08;;;;;;;4.08;1.40;;;;;;;34.52;24.23;100038.27;1696508;83;21572;-75
2021/08/08 11:17:36;;;;;;;4.97;1.42;;;;;;;34.54;23.41;100030.16;1708521;83;21072;-75
2021/08/08 11:20:05;;;;;;;2.72;1.40;;;;;;;34.64;22.62;100032.45;1706269;83;21043;-72
2021/08/08 11:22:32;;;;;;;2.22;1.77;;;;;;;34.74;22.05;100033.35;1700602;83;21535;-73
2021/08/08 11:25:10;;;;;;;2.75;1.52;;;;;;;34.56;21.91;100032.69;1699412;83;21137;-73
2021/08/08 11:27:43;;;;;;;3.25;1.50;;;;;;;33.97;22.50;100031.74;1664352;84;21104;-73
2021/08/08 11:30:19;;;;;;;2.02;1.40;;;;;;;33.48;24.03;100028.38;1704367;82;21090;-72
2021/08/08 11:32:49;;;;;;;2.62;1.70;;;;;;;33.49;23.77;100023.75;1712103;82;21671;-73
2021/08/08 11:35:20;;;;;;;3.02;1.42;;;;;;;33.59;23.94;100020.96;1687980;83;21597;-73
2021/08/08 11:37:49;;;;;;;2.02;1.65;;;;;;;33.76;24.07;100020.53;1701043;83;21023;-74